East Moss Point, Mississippi
Current Conditions -  °F | °C
As of 2:53 PM on Thursday 20 Nov 2014 (Local Time) from KPQL Reporting Station
Clear Clear  
Wind Chill: 64°   Ceiling: Unl
Heat Index: 64°   Visibility: 10mi
Dew Point: 46°   Wind: 7mph
Humidity: 52%   Direction: 210°SSW
Pressure: 30.22"   Gusts: NA
Location:  30.4156°N, 88.5348°W
Report Text: KPQL 202053Z 21006KT 10SM CLR 18/08 A3022 RMK AO2 SLP234 T01780078 56018
Loading
Personal Weather Stations






























Interactive Weather Map New forecast layout! Learn more

10-Day Weather Forecast

Advertisements
Track Severe Weather on mobile